Portada
METAR-TAF:

METAR-TAF

Aeroports :

Puerto Maldonado, Perú

latitud: 12-38S, longitud: 069-12W, altitud: 265 m

Observació

L'informe es va fer fa 9 hores i 37 minuts, a les 23:00 UTC
Vent 2 kt amb direcció variable
Temperatura 18°C
Humitat 83%
Pressió 1018 hPa
Visibilitat 10 km o més
Cel ennuvolat a una alçada de 4000 ft

METAR: SPTU 282300Z VRB02KT 9999 BKN040 18/15 Q1018 RMK BIRD HAZARD RWY 01/19 PP000

Hora: 03:37 (08:37 UTC)

Pronòstic

L'informe es va fer fa 15 hores i 37 minuts, a les 17:00 UTC
Pronòstic vàlid del 28 a les 18 UTC al 29 a les 18 UTC
Vent 6 kt del Sud-Est
Visibilitat 10 km o més
Núvols disperses a una alçada de 1500 ft
Cel ennuvolat a una alçada de 4000 ft

TAF: SPTU 281700Z 2818/2918 13006KT 9999 SCT015 BKN040 TX21/2819Z TN14/2911Z

Observacions i pronòstics meteorològics de més de 4000 aeroports (METAR i TAF).

Les estacions disponibles són els punts grocs i vermells al mapa.

Posi el ratolí al punt desitjat per veure el nom de l'estació.

Feu clic per veure les observacions i els pronòstics meteorològics.

Per canviar el mapa: feu clic els botons verds amb una creu de color negre per apropar; al botó verd amb un guió per allunyar la imatge; o en les fletxes verdes per a mapes adjacents.


METAR-TAF: